Latest Weather Observations for Red Rocks Point

IDW60801

Issued at 4:35 pm WST Friday 21 November 2014 (issued every 30 minutes, with the page automatically refreshed every 10 minutes)

About weather observations | Map of weather stations | Latest weather observations for WA | Other Formats
Station Details ID: 011053 Name: RED ROCKS POINT Lat: -32.20 Lon: 127.53 Height: 3.1 m
Data from the previous 72 hours. | See also: Recent months for locations in Western Australia
Date/Time
WST
Temp
°C
App
Temp
°C
Dew
Point
Rel
Hum
%
Delta-T
°C
Wind Press
QNH
hPa
Press
MSL
hPa
Rain
since 9 am
mm
Dir
 
Spd
km/h
Gust
km/h
Spd
kts
Gust
kts
21/04:30pm 21.5 18.0 16.5 73 3.0 SSW 30 39 16 21 1006.7 - 0.0
21/04:00pm 22.5 19.9 15.8 66 4.0 SW 24 37 13 20 1006.4 - 0.0
21/03:30pm 22.8 19.4 15.9 65 4.2 SW 28 37 15 20 1006.1 - 0.0
21/03:00pm 23.2 20.0 15.3 61 4.7 SW 26 37 14 20 1005.7 1005.7 0.0
21/02:30pm 23.8 20.7 16.6 64 4.4 SW 28 37 15 20 1005.3 - 0.0
21/02:00pm 24.2 21.5 16.7 63 4.6 SW 26 35 14 19 1005.4 - 0.0
21/01:30pm 24.7 21.5 16.2 59 5.2 SW 28 37 15 20 1005.1 - 0.0
21/01:00pm 26.4 24.1 15.8 52 6.5 SW 22 35 12 19 1005.0 - 0.0
21/12:30pm 26.0 25.1 16.8 57 5.7 SSW 17 26 9 14 1004.9 - 0.0
21/12:00pm 24.9 24.3 17.6 64 4.6 S 17 20 9 11 1005.0 1005.0 0.0
21/11:30am 23.7 19.8 15.5 60 4.9 SSW 30 41 16 22 1005.5 - 0.0
21/11:02am 27.7 24.0 15.0 45 7.7 SSW 28 50 15 27 1005.1 - 0.0
21/11:00am 29.6 26.4 14.2 39 9.3 SSW 24 37 13 20 1005.2 - 0.0
21/10:33am 35.0 30.1 11.4 24 13.9 NW 28 48 15 26 1005.2 - 0.0
21/10:30am 35.1 31.0 12.7 26 13.5 NW 26 44 14 24 1005.1 - 0.0
21/10:08am 33.9 29.3 12.3 27 12.9 NNW 28 46 15 25 1005.7 - 0.0
21/10:00am 33.9 28.9 12.3 27 12.9 NNW 30 44 16 24 1005.7 - 0.0
21/09:30am 32.8 28.8 12.9 29 11.9 NNW 26 39 14 21 1006.0 - 0.0
21/09:20am 32.3 27.8 12.5 30 11.8 N 28 50 15 27 1006.2 - 0.0
21/09:00am 31.9 27.6 12.2 30 11.7 N 26 39 14 21 1006.5 1006.5 0.0
21/08:30am 30.4 26.4 11.9 32 10.8 N 24 37 13 20 1006.7 - 0.0
21/08:00am 28.2 22.9 11.3 35 9.7 N 30 46 16 25 1006.9 - 0.0
21/07:30am 27.1 23.2 12.0 39 8.7 N 24 33 13 18 1007.2 - 0.0
21/07:00am 25.2 20.5 12.1 44 7.5 N 28 44 15 24 1007.2 - 0.0
21/06:30am 23.4 18.3 11.8 48 6.5 N 30 48 16 26 1007.2 - 0.0
21/06:25am 23.0 17.7 11.4 48 6.5 N 30 48 16 26 1007.2 - 0.0
21/06:00am 21.8 16.8 10.9 50 6.0 N 28 39 15 21 1007.2 1007.2 0.0
21/05:30am 19.9 14.8 9.2 50 5.7 N 26 37 14 20 1007.2 - 0.0
21/05:00am 18.4 13.9 8.4 52 5.2 N 22 32 12 17 1007.2 - 0.0
21/04:30am 17.5 12.6 8.4 55 4.7 N 24 32 13 17 1007.1 - 0.0
21/04:00am 17.2 12.7 8.6 57 4.4 N 22 33 12 18 1007.0 - 0.0
21/03:30am 17.0 12.6 8.9 59 4.2 N 22 32 12 17 1006.9 - 0.0
21/03:00am 16.7 12.4 9.4 62 3.8 N 22 30 12 16 1007.0 1007.0 0.0
21/02:30am 16.9 12.3 9.6 62 3.8 N 24 32 13 17 1007.1 - 0.0
21/02:00am 17.1 12.2 10.0 63 3.7 N 26 37 14 20 1007.2 - 0.0
21/01:30am 16.9 12.5 10.5 66 3.4 N 24 35 13 19 1007.4 - 0.0
21/01:00am 16.7 12.9 11.2 70 3.0 N 22 32 12 17 1007.7 - 0.0
21/12:30am 16.7 12.8 12.0 74 2.6 N 24 33 13 18 1008.1 - 0.0
21/12:00am 16.6 13.2 12.6 77 2.2 NNE 22 35 12 19 1008.7 1008.7 0.0
 
Date/Time
WST
Temp
°C
App
Temp
°C
Dew
Point
Rel
Hum
%
Delta-T
°C
Wind Press
QNH
hPa
Press
MSL
hPa
Rain
since 9 am
mm
Dir
 
Spd
km/h
Gust
km/h
Spd
kts
Gust
kts
20/11:30pm 16.5 13.6 13.0 80 1.9 NNE 20 28 11 15 1009.2 - 0.0
20/11:00pm 16.5 13.7 13.2 81 1.8 NE 20 30 11 16 1009.5 - 0.0
20/10:30pm 16.9 13.4 13.4 80 2.0 NE 24 32 13 17 1010.0 - 0.0
20/10:00pm 17.4 14.3 13.5 78 2.2 NE 22 33 12 18 1010.3 - 0.0
20/09:30pm 17.7 14.8 14.0 79 2.1 NE 22 28 12 15 1010.8 - 0.0
20/09:00pm 19.1 14.3 15.6 80 2.1 ENE 35 39 19 21 1011.2 1011.2 0.0
20/08:30pm 19.1 14.9 15.6 80 2.1 E 32 35 17 19 1011.6 - 0.0
20/08:00pm 19.1 15.2 15.4 79 2.2 E 30 33 16 18 1011.9 - 0.0
20/07:30pm 19.3 15.0 15.4 78 2.3 E 32 35 17 19 1011.8 - 0.0
20/07:00pm 19.3 14.6 14.8 75 2.6 E 33 37 18 20 1011.6 - 0.0
20/06:30pm 19.3 14.7 15.2 77 2.4 E 33 39 18 21 1011.3 - 0.0
20/06:00pm 19.3 14.9 15.2 77 2.4 E 32 35 17 19 1011.0 1011.0 0.0
20/05:30pm 19.5 15.3 14.7 74 2.8 E 30 33 16 18 1010.9 - 0.0
20/05:00pm 19.7 16.2 14.5 72 3.0 E 26 32 14 17 1011.1 - 0.0
20/04:30pm 20.0 16.5 14.6 71 3.1 E 26 32 14 17 1010.9 - 0.0
20/04:00pm 20.2 16.6 14.3 69 3.4 E 26 28 14 15 1010.8 - 0.0
20/03:30pm 20.4 16.8 14.3 68 3.5 E 26 30 14 16 1010.9 - 0.0
20/03:00pm 20.7 17.3 14.8 69 3.5 E 26 28 14 15 1011.0 1011.0 0.0
20/02:30pm 20.7 17.8 14.1 66 3.8 E 22 26 12 14 1011.1 - 0.0
20/02:00pm 21.1 18.7 14.3 65 4.0 ESE 20 24 11 13 1011.4 - 0.0
20/01:30pm 21.8 19.6 14.4 63 4.3 ESE 19 24 10 13 1012.0 - 0.0
20/01:00pm 21.3 18.9 13.7 62 4.4 SE 19 20 10 11 1012.2 - 0.0
20/12:30pm 21.6 19.6 14.0 62 4.4 SSE 17 20 9 11 1012.7 - 0.0
20/12:00pm 21.1 19.1 14.0 64 4.1 SSE 17 19 9 10 1013.0 1013.0 0.0
20/11:30am 21.5 19.3 13.4 60 4.7 SSE 17 22 9 12 1013.3 - 0.0
20/11:00am 21.2 19.0 13.4 61 4.5 S 17 20 9 11 1013.8 - 0.0
20/10:30am 21.2 19.5 13.6 62 4.4 S 15 19 8 10 1014.0 - 0.0
20/10:00am 21.8 19.1 13.4 59 4.8 S 20 24 11 13 1014.1 - 0.0
20/09:30am 21.4 18.8 13.3 60 4.6 S 19 24 10 13 1014.4 - 0.0
20/09:00am 21.0 18.3 12.9 60 4.6 S 19 22 10 12 1014.4 1014.4 0.0
20/08:30am 20.5 18.6 13.0 62 4.3 S 15 17 8 9 1014.4 - 0.0
20/08:00am 20.5 18.6 13.0 62 4.3 S 15 19 8 10 1014.6 - 0.0
20/07:30am 20.1 18.7 13.3 65 3.9 SSW 13 17 7 9 1014.6 - 0.0
20/07:00am 20.1 18.6 13.1 64 4.0 SSW 13 17 7 9 1014.7 - 0.0
20/06:30am 18.4 16.6 12.2 67 3.4 SSW 13 19 7 10 1014.5 - 0.0
20/06:00am 18.6 17.8 13.0 70 3.1 WSW 9 15 5 8 1014.3 1014.3 0.0
20/05:30am 18.0 17.1 12.7 71 3.0 SW 9 13 5 7 1013.8 - 0.0
20/05:00am 16.8 15.6 12.7 77 2.3 SW 11 15 6 8 1013.8 - 0.0
20/04:30am 16.4 15.1 12.6 78 2.1 SW 11 17 6 9 1013.6 - 0.0
20/04:00am 16.6 14.9 12.6 77 2.2 SSW 13 17 7 9 1013.3 - 0.0
20/03:30am 16.2 14.4 12.2 77 2.2 SSW 13 19 7 10 1012.9 - 0.0
20/03:00am 16.3 15.0 12.5 78 2.1 SW 11 17 6 9 1012.8 1012.8 0.0
20/02:30am 16.6 14.6 12.8 78 2.1 S 15 20 8 11 1012.4 - 0.0
20/02:00am 16.5 14.6 13.0 80 1.9 SSW 15 20 8 11 1012.4 - 0.0
20/01:30am 16.5 15.7 13.0 80 1.9 S 9 15 5 8 1012.4 - 0.0
20/01:00am 16.4 15.6 12.8 79 2.0 SW 9 13 5 7 1013.2 - 0.0
20/12:30am 17.0 16.3 13.1 78 2.2 WSW 9 11 5 6 1014.0 - 0.0
20/12:00am 17.3 15.4 13.0 76 2.4 SW 15 20 8 11 1013.8 1013.8 0.0
 
Date/Time
WST
Temp
°C
App
Temp
°C
Dew
Point
Rel
Hum
%
Delta-T
°C
Wind Press
QNH
hPa
Press
MSL
hPa
Rain
since 9 am
mm
Dir
 
Spd
km/h
Gust
km/h
Spd
kts
Gust
kts
19/11:30pm 17.7 14.7 13.8 78 2.2 SW 22 30 12 16 1013.5 - 0.0
19/11:00pm 17.8 14.2 14.1 79 2.1 SSW 26 35 14 19 1012.7 - 0.0
19/10:30pm 17.9 14.3 14.2 79 2.1 SSW 26 37 14 20 1012.7 - 0.0
19/10:00pm 18.2 14.9 14.9 81 1.9 SSW 26 37 14 20 1013.1 - 0.0
19/09:30pm 18.3 15.5 15.4 83 1.7 SSW 24 32 13 17 1012.7 - 0.0
19/09:00pm 18.4 15.2 15.3 82 1.8 SSW 26 37 14 20 1013.1 1013.1 0.0
19/08:30pm 18.5 15.0 15.6 83 1.7 SSW 28 39 15 21 1013.3 - 0.0
19/08:00pm 18.8 15.1 16.0 84 1.7 SSW 30 41 16 22 1012.7 - 0.0
19/07:30pm 18.6 14.5 16.0 85 1.5 SW 32 44 17 24 1012.4 - 0.0
19/07:16pm 18.6 15.4 16.2 86 1.4 SW 28 46 15 25 1012.3 - 0.0
19/07:00pm 18.6 14.6 16.2 86 1.4 SW 32 44 17 24 1012.2 - 0.0
19/06:32pm 18.9 15.3 16.3 85 1.6 SW 30 48 16 26 1011.8 - 0.0
19/06:30pm 18.9 14.9 16.3 85 1.6 SW 32 48 17 26 1011.8 - 0.0
19/06:00pm 19.0 15.5 16.4 85 1.6 SW 30 43 16 23 1011.0 1011.0 0.0
19/05:30pm 19.5 16.5 16.9 85 1.6 WSW 28 44 15 24 1010.4 - 0.0
19/05:00pm 19.8 16.9 17.0 84 1.7 WSW 28 41 15 22 1009.8 - 0.0
19/04:30pm 20.1 17.6 17.1 83 1.8 WSW 26 39 14 21 1009.4 - 0.0
19/04:00pm 20.9 17.6 17.1 79 2.3 WSW 30 43 16 23 1008.9 - 0.0
19/03:47pm 22.0 19.1 18.0 78 2.5 WSW 30 48 16 26 1008.8 - 0.0
19/03:30pm 20.8 17.6 17.2 80 2.2 WSW 30 46 16 25 1008.7 - 0.0
19/03:00pm 21.5 17.9 17.3 77 2.6 WSW 32 46 17 25 1008.4 1008.4 0.0
19/02:30pm 21.9 19.7 17.9 78 2.5 WSW 26 41 14 22 1008.4 - 0.0
19/02:00pm 21.4 19.2 17.8 80 2.2 WSW 26 37 14 20 1008.7 - 0.0
19/01:30pm 21.5 19.2 17.5 78 2.5 WSW 26 44 14 24 1008.7 - 0.0
19/01:00pm 21.6 18.1 17.4 77 2.6 WSW 32 50 17 27 1008.5 - 0.0
19/12:32pm 22.1 18.5 17.7 76 2.7 WSW 33 52 18 28 1008.5 - 0.0
19/12:30pm 22.1 18.1 17.7 76 2.7 WSW 35 52 19 28 1008.5 - 0.0
19/12:09pm 22.8 18.8 17.5 72 3.3 WSW 35 56 19 30 1008.3 - 0.0
19/12:00pm 23.7 20.2 17.4 68 3.9 WSW 32 46 17 25 1007.7 1007.7 0.0
19/11:30am 26.8 24.1 18.4 60 5.3 WSW 30 46 16 25 1007.0 - 0.0
19/11:01am 28.1 24.8 17.0 51 6.9 WSW 30 48 16 26 1007.0 - 0.0
19/11:00am 28.4 25.5 17.0 50 7.1 WSW 28 44 15 24 1007.0 - 0.0
19/10:58am 28.7 25.7 16.9 48 7.4 WSW 28 43 15 23 1007.0 - 0.0
19/10:30am 33.9 30.9 15.8 33 11.4 WNW 26 37 14 20 1006.5 - 0.0
19/10:00am 34.4 31.8 15.8 33 11.7 NW 24 39 13 21 1006.6 - 0.0
19/09:30am 34.3 30.7 15.2 31 11.9 NW 28 44 15 24 1006.3 - 0.0
19/09:00am 32.6 29.5 15.6 36 10.6 NW 26 41 14 22 1006.5 1006.5 0.0
19/08:30am 31.9 28.2 15.0 36 10.4 NNW 28 44 15 24 1006.8 - 0.0
19/08:00am 30.4 28.5 16.8 44 8.6 NNW 22 32 12 17 1007.0 - 0.0
19/07:30am 27.6 26.7 16.9 52 6.7 NNW 17 26 9 14 1007.1 - 0.0
19/07:00am 25.6 24.9 16.4 56 5.7 N 15 20 8 11 1007.3 - 0.0
19/06:30am 23.2 24.3 17.0 68 3.8 N 7 11 4 6 1007.5 - 0.0
19/06:00am 21.8 22.6 16.3 71 3.3 N 7 9 4 5 1007.6 1007.6 0.0
19/05:30am 20.9 20.8 15.9 73 3.0 NNW 11 15 6 8 1007.7 - 0.0
19/05:00am 20.4 19.4 15.6 74 2.9 N 15 17 8 9 1007.5 - 0.0
19/04:30am 19.8 19.4 15.2 75 2.7 N 11 13 6 7 1007.0 - 0.0
19/04:00am 20.0 21.7 15.2 74 2.8 CALM 0 0 0 0 1006.8 - 0.0
19/03:30am 20.6 21.0 15.4 72 3.1 WNW 7 9 4 5 1006.9 - 0.0
19/03:00am 21.1 21.2 15.4 70 3.4 NW 9 11 5 6 1007.0 1007.0 0.0
19/02:30am 21.9 22.0 15.5 67 3.8 N 9 15 5 8 1007.4 - 0.0
19/02:00am 22.0 21.9 16.1 69 3.6 NW 11 17 6 9 1009.1 - 0.0
19/01:30am 22.0 22.5 16.5 71 3.3 SW 9 15 5 8 1009.1 - 0.0
19/01:00am 22.2 23.7 14.6 62 4.5 CALM 0 9 0 5 1009.2 - 0.0
19/12:30am 22.3 24.3 16.1 68 3.7 CALM 0 0 0 0 1008.3 - 0.0
19/12:00am 23.9 22.0 9.1 39 8.0 W 9 11 5 6 1009.7 1009.7 0.0
 
Date/Time
WST
Temp
°C
App
Temp
°C
Dew
Point
Rel
Hum
%
Delta-T
°C
Wind Press
QNH
hPa
Press
MSL
hPa
Rain
since 9 am
mm
Dir
 
Spd
km/h
Gust
km/h
Spd
kts
Gust
kts
18/11:30pm 25.3 22.4 8.3 34 9.1 NW 13 17 7 9 1010.3 - 0.0
18/11:00pm 25.7 22.2 7.3 31 9.7 NNW 15 28 8 15 1011.0 - 0.0
18/10:50pm 25.6 20.1 7.7 32 9.5 NW 26 48 14 26 1011.6 - 0.0
18/10:42pm 25.0 21.7 8.1 34 9.0 NE 15 50 8 27 1009.5 - 0.0
18/10:34pm 24.4 19.3 7.5 34 8.9 NW 24 50 13 27 1011.8 - 0.0
18/10:30pm 24.0 19.6 7.6 35 8.6 NE 20 28 11 15 1008.8 - 0.0
18/10:00pm 23.4 19.7 10.1 43 7.3 NE 20 26 11 14 1009.3 - 0.0
18/09:30pm 23.5 19.2 10.6 44 7.1 NE 24 30 13 16 1010.0 - 0.0
18/09:00pm 22.3 19.1 11.1 49 6.2 ENE 19 26 10 14 1010.6 1010.6 0.0
18/08:30pm 21.5 19.7 16.9 75 2.8 ENE 22 28 12 15 1010.7 - 0.0
18/08:00pm 21.4 19.2 16.8 75 2.8 ENE 24 28 13 15 1010.9 - 0.0
18/07:30pm 21.5 18.5 16.9 75 2.8 ENE 28 33 15 18 1011.0 - 0.0
18/07:00pm 21.5 17.6 16.5 73 3.0 ENE 32 37 17 20 1011.1 - 0.0
18/06:30pm 21.5 17.4 16.5 73 3.0 ENE 33 41 18 22 1011.2 - 0.0
18/06:00pm 21.4 16.9 16.4 73 3.0 ENE 35 43 19 23 1011.0 1011.0 0.0
18/05:30pm 21.6 17.2 16.6 73 3.0 ENE 35 43 19 23 1010.7 - 0.0
18/05:00pm 21.6 16.3 16.3 72 3.2 ENE 39 46 21 25 1010.8 - 0.0

Other Formats:

Comma delimited format used in spreadsheet applications
http://www.bom.gov.au/fwo/IDW60801/IDW60801.94644.axf

JavaScript Object Notation format (JSON) in row-major order
http://www.bom.gov.au/fwo/IDW60801/IDW60801.94644.json